sensor_id;sensor_type;location;lat;lon;timestamp;temperature;humidity
39483;DHT22;25682;48.438;1.482;2023-02-25T11:20:51;21.00;50.40
39483;DHT22;25682;48.438;1.482;2023-02-25T11:26:07;21.00;53.40
39483;DHT22;25682;48.438;1.482;2023-02-25T11:28:38;20.90;53.30
39483;DHT22;25682;48.438;1.482;2023-02-25T11:34:26;20.90;53.30
39483;DHT22;25682;48.438;1.482;2023-02-25T11:36:52;20.90;53.10
39483;DHT22;25682;48.438;1.482;2023-02-25T11:39:26;20.80;53.00
39483;DHT22;25682;48.438;1.482;2023-02-25T11:41:55;20.80;52.70
39483;DHT22;25682;48.438;1.482;2023-02-25T11:44:30;20.80;52.70
39483;DHT22;25682;48.438;1.482;2023-02-25T11:47:23;20.80;52.70
39483;DHT22;25682;48.438;1.482;2023-02-25T11:50:14;20.80;52.60
39483;DHT22;25682;48.438;1.482;2023-02-25T11:53:16;20.80;52.60
39483;DHT22;25682;48.438;1.482;2023-02-25T12:04:38;20.70;52.80
39483;DHT22;25682;48.438;1.482;2023-02-25T12:07:05;20.70;52.20
39483;DHT22;25682;48.438;1.482;2023-02-25T12:32:20;20.60;52.20
39483;DHT22;25682;48.438;1.482;2023-02-25T12:46:14;20.40;48.50
39483;DHT22;25682;48.438;1.482;2023-02-25T12:51:38;20.40;50.70
39483;DHT22;25682;48.438;1.482;2023-02-25T12:54:30;20.30;51.10
39483;DHT22;25682;48.438;1.482;2023-02-25T12:57:25;20.40;51.50
39483;DHT22;25682;48.438;1.482;2023-02-25T13:02:48;20.30;51.70
39483;DHT22;25682;48.438;1.482;2023-02-25T13:08:04;20.30;51.90
39483;DHT22;25682;48.438;1.482;2023-02-25T13:21:45;20.30;51.80
39483;DHT22;25682;48.438;1.482;2023-02-25T13:24:30;20.30;51.80
39483;DHT22;25682;48.438;1.482;2023-02-25T13:27:19;20.30;52.00
39483;DHT22;25682;48.438;1.482;2023-02-25T14:44:02;20.10;50.60
39483;DHT22;25682;48.438;1.482;2023-02-25T14:46:32;20.20;50.70
39483;DHT22;25682;48.438;1.482;2023-02-25T14:49:14;20.20;50.80
39483;DHT22;25682;48.438;1.482;2023-02-25T15:03:18;20.20;50.60
39483;DHT22;25682;48.438;1.482;2023-02-25T15:14:20;20.20;48.90
39483;DHT22;25682;48.438;1.482;2023-02-25T15:22:52;20.20;49.90
39483;DHT22;25682;48.438;1.482;2023-02-25T15:27:54;20.10;50.00
39483;DHT22;25682;48.438;1.482;2023-02-25T15:30:26;20.10;50.10
39483;DHT22;25682;48.438;1.482;2023-02-25T15:33:03;20.10;50.10
39483;DHT22;25682;48.438;1.482;2023-02-25T15:40:49;20.10;50.00
39483;DHT22;25682;48.438;1.482;2023-02-25T15:45:47;20.10;50.00
39483;DHT22;25682;48.438;1.482;2023-02-25T15:57:59;20.10;49.70
39483;DHT22;25682;48.438;1.482;2023-02-25T16:08:56;20.10;49.60
39483;DHT22;25682;48.438;1.482;2023-02-25T16:14:05;20.10;49.60
39483;DHT22;25682;48.438;1.482;2023-02-25T16:16:32;20.10;49.60
39483;DHT22;25682;48.438;1.482;2023-02-25T16:18:59;20.10;49.60
39483;DHT22;25682;48.438;1.482;2023-02-25T16:21:48;20.10;49.40
39483;DHT22;25682;48.438;1.482;2023-02-25T16:24:17;20.10;49.30
39483;DHT22;25682;48.438;1.482;2023-02-25T16:27:05;20.10;49.30
39483;DHT22;25682;48.438;1.482;2023-02-25T16:35:22;20.10;49.30
39483;DHT22;25682;48.438;1.482;2023-02-25T16:37:57;20.00;49.20
39483;DHT22;25682;48.438;1.482;2023-02-25T16:40:38;20.00;48.90
39483;DHT22;25682;48.438;1.482;2023-02-25T16:43:08;20.00;49.00
39483;DHT22;25682;48.438;1.482;2023-02-25T16:46:00;20.00;49.00
39483;DHT22;25682;48.438;1.482;2023-02-25T16:48:29;20.10;49.10
39483;DHT22;25682;48.438;1.482;2023-02-25T16:50:56;20.10;49.40
39483;DHT22;25682;48.438;1.482;2023-02-25T16:53:24;20.00;49.40
39483;DHT22;25682;48.438;1.482;2023-02-25T16:55:57;20.10;49.60
39483;DHT22;25682;48.438;1.482;2023-02-25T16:58:25;20.00;49.50
39483;DHT22;25682;48.438;1.482;2023-02-25T17:00:59;20.00;49.50
39483;DHT22;25682;48.438;1.482;2023-02-25T17:03:28;20.00;49.60
39483;DHT22;25682;48.438;1.482;2023-02-25T17:06:07;20.00;49.50
39483;DHT22;25682;48.438;1.482;2023-02-25T17:08:34;20.00;49.50
39483;DHT22;25682;48.438;1.482;2023-02-25T17:11:02;20.00;49.60
39483;DHT22;25682;48.438;1.482;2023-02-25T17:13:38;20.00;49.50
39483;DHT22;25682;48.438;1.482;2023-02-25T17:16:05;20.00;49.40
39483;DHT22;25682;48.438;1.482;2023-02-25T17:18:56;20.00;49.30
39483;DHT22;25682;48.438;1.482;2023-02-25T17:21:42;20.00;49.30
39483;DHT22;25682;48.438;1.482;2023-02-25T17:24:12;20.00;49.30
39483;DHT22;25682;48.438;1.482;2023-02-25T17:26:44;20.00;49.30
39483;DHT22;25682;48.438;1.482;2023-02-25T17:29:13;20.00;49.20
39483;DHT22;25682;48.438;1.482;2023-02-25T17:31:52;20.00;49.20
39483;DHT22;25682;48.438;1.482;2023-02-25T17:34:33;20.00;49.10
39483;DHT22;25682;48.438;1.482;2023-02-25T17:37:03;20.00;49.20
39483;DHT22;25682;48.438;1.482;2023-02-25T17:39:29;20.00;49.20
39483;DHT22;25682;48.438;1.482;2023-02-25T17:41:55;20.00;49.40
39483;DHT22;25682;48.438;1.482;2023-02-25T17:47:04;20.00;50.20
39483;DHT22;25682;48.438;1.482;2023-02-25T17:49:32;20.00;50.40
39483;DHT22;25682;48.438;1.482;2023-02-25T17:52:04;20.00;50.70
39483;DHT22;25682;48.438;1.482;2023-02-25T17:54:35;20.00;51.00
39483;DHT22;25682;48.438;1.482;2023-02-25T17:59:38;20.00;51.50
39483;DHT22;25682;48.438;1.482;2023-02-25T18:04:48;20.00;51.90
39483;DHT22;25682;48.438;1.482;2023-02-25T18:07:27;20.00;51.80
39483;DHT22;25682;48.438;1.482;2023-02-25T18:10:05;20.00;52.10
39483;DHT22;25682;48.438;1.482;2023-02-25T18:12:50;20.00;52.20
39483;DHT22;25682;48.438;1.482;2023-02-25T18:15:22;20.00;52.20
39483;DHT22;25682;48.438;1.482;2023-02-25T18:17:52;20.00;52.40
39483;DHT22;25682;48.438;1.482;2023-02-25T18:23:18;20.00;52.10
39483;DHT22;25682;48.438;1.482;2023-02-25T18:28:38;20.10;52.20
39483;DHT22;25682;48.438;1.482;2023-02-25T18:31:04;20.10;52.30
39483;DHT22;25682;48.438;1.482;2023-02-25T18:33:30;20.10;52.30
39483;DHT22;25682;48.438;1.482;2023-02-25T18:35:57;20.10;52.30
39483;DHT22;25682;48.438;1.482;2023-02-25T18:38:24;20.10;52.40
39483;DHT22;25682;48.438;1.482;2023-02-25T18:40:52;20.10;52.40
39483;DHT22;25682;48.438;1.482;2023-02-25T18:43:23;20.10;52.30
39483;DHT22;25682;48.438;1.482;2023-02-25T18:45:53;20.10;52.30
39483;DHT22;25682;48.438;1.482;2023-02-25T18:48:19;20.10;52.40
39483;DHT22;25682;48.438;1.482;2023-02-25T18:50:44;20.10;52.40
39483;DHT22;25682;48.438;1.482;2023-02-25T18:53:18;20.10;52.30
39483;DHT22;25682;48.438;1.482;2023-02-25T18:55:45;20.10;52.20
39483;DHT22;25682;48.438;1.482;2023-02-25T18:58:12;20.10;52.10
39483;DHT22;25682;48.438;1.482;2023-02-25T19:00:39;20.10;52.00
39483;DHT22;25682;48.438;1.482;2023-02-25T19:03:05;20.10;51.90
39483;DHT22;25682;48.438;1.482;2023-02-25T19:05:33;20.10;51.80
39483;DHT22;25682;48.438;1.482;2023-02-25T19:07:59;20.10;51.70
39483;DHT22;25682;48.438;1.482;2023-02-25T19:10:29;20.10;51.70
39483;DHT22;25682;48.438;1.482;2023-02-25T19:13:04;20.10;51.60
39483;DHT22;25682;48.438;1.482;2023-02-25T19:15:31;20.10;51.50
39483;DHT22;25682;48.438;1.482;2023-02-25T19:17:57;20.10;51.50
39483;DHT22;25682;48.438;1.482;2023-02-25T19:20:22;20.10;51.40
39483;DHT22;25682;48.438;1.482;2023-02-25T19:22:50;20.10;51.30
39483;DHT22;25682;48.438;1.482;2023-02-25T19:25:26;20.10;51.30
39483;DHT22;25682;48.438;1.482;2023-02-25T19:27:52;20.10;51.30
39483;DHT22;25682;48.438;1.482;2023-02-25T19:30:21;20.10;51.40
39483;DHT22;25682;48.438;1.482;2023-02-25T19:32:48;20.10;51.80
39483;DHT22;25682;48.438;1.482;2023-02-25T19:35:13;20.10;52.00
39483;DHT22;25682;48.438;1.482;2023-02-25T19:37:40;20.20;52.30
39483;DHT22;25682;48.438;1.482;2023-02-25T19:40:09;20.20;52.70
39483;DHT22;25682;48.438;1.482;2023-02-25T19:42:39;20.20;52.90
39483;DHT22;25682;48.438;1.482;2023-02-25T19:45:08;20.20;53.20
39483;DHT22;25682;48.438;1.482;2023-02-25T19:47:35;20.20;53.30
39483;DHT22;25682;48.438;1.482;2023-02-25T19:50:01;20.20;53.40
39483;DHT22;25682;48.438;1.482;2023-02-25T19:52:28;20.20;53.40
39483;DHT22;25682;48.438;1.482;2023-02-25T19:54:54;20.30;53.50
39483;DHT22;25682;48.438;1.482;2023-02-25T19:57:20;20.30;53.50
39483;DHT22;25682;48.438;1.482;2023-02-25T19:59:46;20.30;53.40
39483;DHT22;25682;48.438;1.482;2023-02-25T20:02:13;20.30;53.30
39483;DHT22;25682;48.438;1.482;2023-02-25T20:04:39;20.30;53.20
39483;DHT22;25682;48.438;1.482;2023-02-25T20:07:05;20.30;53.10
39483;DHT22;25682;48.438;1.482;2023-02-25T20:09:31;20.30;53.10
39483;DHT22;25682;48.438;1.482;2023-02-25T20:11:56;20.30;53.10
39483;DHT22;25682;48.438;1.482;2023-02-25T20:14:22;20.30;52.60
39483;DHT22;25682;48.438;1.482;2023-02-25T20:16:49;20.20;52.00
39483;DHT22;25682;48.438;1.482;2023-02-25T20:19:15;20.20;51.90
39483;DHT22;25682;48.438;1.482;2023-02-25T20:21:40;20.20;51.90
39483;DHT22;25682;48.438;1.482;2023-02-25T20:24:06;20.20;51.80
39483;DHT22;25682;48.438;1.482;2023-02-25T20:26:32;20.20;51.70
39483;DHT22;25682;48.438;1.482;2023-02-25T20:28:58;20.20;51.70
39483;DHT22;25682;48.438;1.482;2023-02-25T20:31:25;20.20;51.60
39483;DHT22;25682;48.438;1.482;2023-02-25T20:33:53;20.20;51.60
39483;DHT22;25682;48.438;1.482;2023-02-25T20:41:41;20.20;51.60
39483;DHT22;25682;48.438;1.482;2023-02-25T20:44:08;20.20;51.80
39483;DHT22;25682;48.438;1.482;2023-02-25T20:46:34;20.20;51.60
39483;DHT22;25682;48.438;1.482;2023-02-25T20:49:00;20.20;51.60
39483;DHT22;25682;48.438;1.482;2023-02-25T20:51:26;20.20;51.50
39483;DHT22;25682;48.438;1.482;2023-02-25T20:53:52;20.20;51.50
39483;DHT22;25682;48.438;1.482;2023-02-25T20:56:23;20.20;51.50
39483;DHT22;25682;48.438;1.482;2023-02-25T20:58:49;20.20;51.40
39483;DHT22;25682;48.438;1.482;2023-02-25T21:01:15;20.20;52.00
39483;DHT22;25682;48.438;1.482;2023-02-25T21:03:41;20.20;51.30
39483;DHT22;25682;48.438;1.482;2023-02-25T21:06:08;20.20;51.40
39483;DHT22;25682;48.438;1.482;2023-02-25T21:08:34;20.10;51.30
39483;DHT22;25682;48.438;1.482;2023-02-25T21:11:00;20.10;51.20
39483;DHT22;25682;48.438;1.482;2023-02-25T21:13:26;20.10;51.20
39483;DHT22;25682;48.438;1.482;2023-02-25T21:16:00;20.10;51.10
39483;DHT22;25682;48.438;1.482;2023-02-25T21:18:27;20.10;51.00
39483;DHT22;25682;48.438;1.482;2023-02-25T21:21:04;20.10;51.10
39483;DHT22;25682;48.438;1.482;2023-02-25T21:23:32;20.10;51.10
39483;DHT22;25682;48.438;1.482;2023-02-25T21:25:58;20.10;51.10
39483;DHT22;25682;48.438;1.482;2023-02-25T21:28:24;20.10;51.30
39483;DHT22;25682;48.438;1.482;2023-02-25T21:30:51;20.10;51.30
39483;DHT22;25682;48.438;1.482;2023-02-25T21:33:17;20.10;51.30
39483;DHT22;25682;48.438;1.482;2023-02-25T21:35:52;20.10;51.20
39483;DHT22;25682;48.438;1.482;2023-02-25T21:38:18;20.10;50.50
39483;DHT22;25682;48.438;1.482;2023-02-25T21:40:44;20.10;50.40
39483;DHT22;25682;48.438;1.482;2023-02-25T21:43:10;20.10;50.50
39483;DHT22;25682;48.438;1.482;2023-02-25T21:45:36;20.10;50.60
39483;DHT22;25682;48.438;1.482;2023-02-25T21:48:03;20.10;50.60
39483;DHT22;25682;48.438;1.482;2023-02-25T21:50:29;20.10;50.70
39483;DHT22;25682;48.438;1.482;2023-02-25T21:52:54;20.10;50.90
39483;DHT22;25682;48.438;1.482;2023-02-25T21:55:21;20.10;51.10
39483;DHT22;25682;48.438;1.482;2023-02-25T21:57:46;20.10;51.40
39483;DHT22;25682;48.438;1.482;2023-02-25T22:00:12;20.10;51.40
39483;DHT22;25682;48.438;1.482;2023-02-25T22:02:38;20.10;51.30
39483;DHT22;25682;48.438;1.482;2023-02-25T22:05:04;20.10;51.30
39483;DHT22;25682;48.438;1.482;2023-02-25T22:07:30;20.10;51.30
39483;DHT22;25682;48.438;1.482;2023-02-25T22:09:55;20.10;51.20
39483;DHT22;25682;48.438;1.482;2023-02-25T22:12:23;20.10;51.30
39483;DHT22;25682;48.438;1.482;2023-02-25T22:14:49;20.10;51.30
39483;DHT22;25682;48.438;1.482;2023-02-25T22:17:14;20.00;51.20
39483;DHT22;25682;48.438;1.482;2023-02-25T22:19:40;20.00;51.20
39483;DHT22;25682;48.438;1.482;2023-02-25T22:22:06;20.00;51.20
39483;DHT22;25682;48.438;1.482;2023-02-25T22:24:31;20.00;51.30
39483;DHT22;25682;48.438;1.482;2023-02-25T22:26:57;20.00;51.40
39483;DHT22;25682;48.438;1.482;2023-02-25T22:29:22;20.00;51.40
39483;DHT22;25682;48.438;1.482;2023-02-25T22:31:48;19.90;51.20
39483;DHT22;25682;48.438;1.482;2023-02-25T22:34:14;19.90;51.20
39483;DHT22;25682;48.438;1.482;2023-02-25T22:36:39;19.90;51.10
39483;DHT22;25682;48.438;1.482;2023-02-25T22:39:06;19.90;51.00
39483;DHT22;25682;48.438;1.482;2023-02-25T22:41:32;19.90;51.00
39483;DHT22;25682;48.438;1.482;2023-02-25T22:43:58;19.90;51.00
39483;DHT22;25682;48.438;1.482;2023-02-25T22:46:33;19.90;51.00
39483;DHT22;25682;48.438;1.482;2023-02-25T22:49:02;19.90;51.50
39483;DHT22;25682;48.438;1.482;2023-02-25T22:51:38;19.80;50.80
39483;DHT22;25682;48.438;1.482;2023-02-25T22:54:06;19.90;50.80
39483;DHT22;25682;48.438;1.482;2023-02-25T22:56:32;19.80;50.70
39483;DHT22;25682;48.438;1.482;2023-02-25T22:58:58;19.80;50.60
39483;DHT22;25682;48.438;1.482;2023-02-25T23:01:24;19.80;50.60
39483;DHT22;25682;48.438;1.482;2023-02-25T23:03:51;19.80;50.60
39483;DHT22;25682;48.438;1.482;2023-02-25T23:06:18;19.70;50.50
39483;DHT22;25682;48.438;1.482;2023-02-25T23:08:44;19.80;50.50
39483;DHT22;25682;48.438;1.482;2023-02-25T23:11:14;19.70;50.40
39483;DHT22;25682;48.438;1.482;2023-02-25T23:13:42;19.70;50.40
39483;DHT22;25682;48.438;1.482;2023-02-25T23:16:21;19.70;50.30
39483;DHT22;25682;48.438;1.482;2023-02-25T23:18:47;19.70;50.30
39483;DHT22;25682;48.438;1.482;2023-02-25T23:21:15;19.70;50.30
39483;DHT22;25682;48.438;1.482;2023-02-25T23:23:44;19.70;50.30
39483;DHT22;25682;48.438;1.482;2023-02-25T23:26:13;19.70;50.30
39483;DHT22;25682;48.438;1.482;2023-02-25T23:28:40;19.60;50.10
39483;DHT22;25682;48.438;1.482;2023-02-25T23:31:05;19.60;50.10
39483;DHT22;25682;48.438;1.482;2023-02-25T23:33:31;19.60;50.10
39483;DHT22;25682;48.438;1.482;2023-02-25T23:35:58;19.60;50.10
39483;DHT22;25682;48.438;1.482;2023-02-25T23:38:24;19.60;50.00
39483;DHT22;25682;48.438;1.482;2023-02-25T23:40:49;19.60;50.00
39483;DHT22;25682;48.438;1.482;2023-02-25T23:43:15;19.50;49.90
39483;DHT22;25682;48.438;1.482;2023-02-25T23:45:41;19.50;49.90
39483;DHT22;25682;48.438;1.482;2023-02-25T23:48:07;19.50;49.90
39483;DHT22;25682;48.438;1.482;2023-02-25T23:50:33;19.50;49.80
39483;DHT22;25682;48.438;1.482;2023-02-25T23:52:58;19.50;49.80
39483;DHT22;25682;48.438;1.482;2023-02-25T23:55:24;19.50;49.80
39483;DHT22;25682;48.438;1.482;2023-02-25T23:57:50;19.50;49.80
